Terminal Aerodrome Forecast
Issued by NWS

Home | Current Version | Previous Version | Text Only | Print | Product List | Glossary On
Versions: 1 2 3 4 5 6 7 8 9 10 11 12
000
FTUS45 KVEF 130520
TAFEED
TAF
KEED 130520Z 1306/1406 33006KT P6SM SKC
     FM131800 01009KT P6SM SKC
     FM140200 30007KT P6SM SCT250=

USA.gov is the U.S. government's official web portal to all federal, state and local government web resources and services.